createdAt,value
2023-04-23T00:00:54.761Z,12.25
2023-04-23T00:02:39.550Z,8.40
2023-04-23T00:04:35.830Z,15.80
2023-04-23T00:09:20.232Z,16.58
2023-04-23T00:16:34.932Z,7.85
2023-04-23T00:18:01.400Z,14.10
2023-04-23T00:19:51.430Z,19.15
2023-04-23T00:23:26.701Z,14.90
2023-04-23T00:27:42.728Z,13.98
2023-04-23T00:29:27.629Z,13.60
2023-04-23T00:31:23.913Z,13.48
2023-04-23T00:32:42.789Z,10.90
2023-04-23T00:34:08.172Z,11.88
2023-04-23T00:35:15.543Z,11.85
2023-04-23T00:36:25.157Z,18.70
2023-04-23T00:37:48.992Z,15.40
2023-04-23T00:39:21.987Z,18.95
2023-04-23T00:40:42.694Z,13.52
2023-04-23T00:43:18.500Z,23.85
2023-04-23T00:44:34.501Z,18.33
2023-04-23T00:48:10.248Z,20.40
2023-04-23T00:50:15.826Z,17.20
2023-04-23T00:51:24.722Z,16.70
2023-04-23T00:52:31.811Z,21.63
2023-04-23T00:54:04.862Z,18.10
2023-04-23T00:56:11.466Z,20.50
2023-04-23T00:57:43.221Z,16.65
2023-04-23T00:59:53.099Z,17.20
2023-04-23T01:01:18.042Z,18.77
2023-04-23T01:02:35.388Z,14.52
2023-04-23T01:04:03.993Z,14.98
2023-04-23T01:05:31.029Z,14.75
2023-04-23T01:10:05.188Z,15.52
2023-04-23T01:12:55.876Z,19.10
2023-04-23T01:14:24.839Z,18.48
2023-04-23T01:17:21.735Z,15.18
2023-04-23T01:18:36.081Z,11.55
2023-04-23T01:20:23.364Z,10.85
2023-04-23T01:22:11.284Z,11.90
2023-04-23T01:23:34.739Z,9.50
2023-04-23T01:24:57.355Z,11.60
2023-04-23T01:26:13.893Z,26.20
2023-04-23T01:27:50.536Z,26.52
2023-04-23T01:29:04.709Z,21.38
2023-04-23T01:30:39.218Z,20.63
2023-04-23T01:33:09.029Z,15.05
2023-04-23T01:34:17.475Z,14.07
2023-04-23T01:37:30.347Z,12.48
2023-04-23T01:38:46.209Z,8.48
2023-04-23T01:39:54.650Z,13.18
2023-04-23T01:41:12.288Z,8.80
2023-04-23T01:42:24.726Z,12.52
2023-04-23T01:44:01.689Z,11.85
2023-04-23T01:45:46.775Z,13.27
2023-04-23T01:47:07.758Z,12.57
2023-04-23T01:50:01.471Z,12.13
2023-04-23T01:51:12.955Z,10.38
2023-04-23T01:52:40.069Z,9.88
2023-04-23T01:55:11.578Z,12.13
2023-04-23T01:56:31.665Z,11.45
2023-04-23T01:58:32.541Z,11.43
2023-04-23T01:59:50.395Z,10.40
2023-04-23T02:01:43.553Z,12.32
2023-04-23T02:02:55.097Z,8.45
2023-04-23T02:05:12.850Z,9.32
2023-04-23T02:06:27.689Z,8.68
2023-04-23T02:07:45.216Z,10.18
2023-04-23T02:09:20.371Z,10.35
2023-04-23T02:10:39.869Z,12.27
2023-04-23T02:11:52.986Z,8.85
2023-04-23T02:13:00.877Z,13.88
2023-04-23T02:14:10.909Z,12.38
2023-04-23T02:15:15.857Z,10.95
2023-04-23T02:19:47.577Z,11.45
2023-04-23T02:27:50.279Z,16.67
2023-04-23T03:01:57.610Z,11.40
2023-04-23T03:13:07.412Z,15.23
2023-04-23T03:15:03.298Z,17.45
2023-04-23T03:17:07.911Z,15.52
2023-04-23T03:18:43.623Z,19.73
2023-04-23T03:20:55.114Z,14.00
2023-04-23T03:25:07.471Z,14.32
2023-04-23T03:29:11.573Z,16.98
2023-04-23T03:30:33.034Z,18.80
2023-04-23T03:31:39.177Z,17.92
2023-04-23T03:32:41.659Z,17.02
2023-04-23T03:33:45.744Z,15.57
2023-04-23T03:35:25.531Z,12.75
2023-04-23T03:36:50.758Z,17.40
2023-04-23T03:38:12.117Z,17.30
2023-04-23T03:39:26.262Z,17.33
2023-04-23T03:40:30.132Z,15.60
2023-04-23T03:41:41.076Z,19.88
2023-04-23T03:42:43.609Z,17.60
2023-04-23T03:43:46.217Z,15.55
2023-04-23T03:44:51.017Z,20.27
2023-04-23T03:45:54.830Z,24.83
2023-04-23T03:46:57.201Z,12.25
2023-04-23T03:47:59.803Z,18.45
2023-04-23T03:49:03.455Z,16.60
2023-04-23T03:50:07.916Z,17.85
2023-04-23T03:51:11.135Z,18.08
2023-04-23T03:52:13.506Z,21.95
2023-04-23T03:53:18.627Z,18.73
2023-04-23T03:54:25.910Z,23.10
2023-04-23T03:55:33.006Z,17.25
2023-04-23T03:56:38.584Z,23.38
2023-04-23T03:57:41.411Z,18.00
2023-04-23T03:58:43.838Z,21.05
2023-04-23T03:59:46.210Z,19.70
2023-04-23T04:00:48.783Z,26.38
2023-04-23T04:01:54.826Z,26.90
2023-04-23T04:02:57.630Z,21.52
2023-04-23T04:04:00.425Z,25.65
2023-04-23T04:05:05.053Z,20.35
2023-04-23T04:06:08.380Z,21.80
2023-04-23T04:07:12.243Z,19.38
2023-04-23T04:08:14.570Z,26.00
2023-04-23T04:09:17.315Z,24.17
2023-04-23T04:10:21.316Z,23.17
2023-04-23T04:11:30.430Z,27.88
2023-04-23T04:12:41.595Z,25.45
2023-04-23T04:13:47.817Z,17.48
2023-04-23T04:14:55.589Z,23.38
2023-04-23T04:15:58.362Z,32.72
2023-04-23T04:17:06.173Z,29.95
2023-04-23T04:18:08.663Z,32.97
2023-04-23T04:19:14.981Z,37.28
2023-04-23T04:20:22.718Z,25.35
2023-04-23T04:21:34.935Z,19.20
2023-04-23T04:22:37.423Z,19.70
2023-04-23T04:23:40.051Z,21.02
2023-04-23T04:24:47.710Z,21.73
2023-04-23T04:25:54.736Z,28.20
2023-04-23T04:26:58.905Z,30.65
2023-04-23T04:28:01.272Z,21.45
2023-04-23T04:29:03.761Z,23.63
2023-04-23T04:30:15.328Z,24.25
2023-04-23T04:31:18.556Z,18.77
2023-04-23T04:32:24.910Z,25.77
2023-04-23T04:33:28.368Z,21.50
2023-04-23T04:34:32.140Z,23.40
2023-04-23T04:35:48.987Z,24.20
2023-04-23T04:36:57.432Z,24.48
2023-04-23T04:38:06.357Z,24.20
2023-04-23T04:39:11.225Z,24.90
2023-04-23T04:40:19.370Z,18.67
2023-04-23T04:41:30.563Z,20.38
2023-04-23T04:42:36.351Z,18.92
2023-04-23T04:43:51.236Z,19.52
2023-04-23T04:44:59.593Z,23.95
2023-04-23T04:46:07.591Z,20.50
2023-04-23T04:47:22.554Z,27.77
2023-04-23T04:48:44.545Z,19.60
2023-04-23T04:50:29.884Z,18.40
2023-04-23T04:52:34.566Z,21.55
2023-04-23T04:53:38.093Z,13.65
2023-04-23T04:54:41.910Z,22.10
2023-04-23T04:55:44.496Z,21.92
2023-04-23T04:56:46.687Z,20.45
2023-04-23T04:57:48.850Z,19.70
2023-04-23T04:58:51.086Z,23.02
2023-04-23T04:59:53.957Z,19.58
2023-04-23T05:00:56.355Z,20.95
2023-04-23T05:01:59.719Z,25.13
2023-04-23T05:03:02.443Z,23.40
2023-04-23T05:04:04.934Z,21.58
2023-04-23T05:05:08.878Z,21.58
2023-04-23T05:06:11.066Z,20.55
2023-04-23T05:07:13.216Z,23.85
2023-04-23T05:08:18.848Z,18.75
2023-04-23T05:09:22.342Z,19.42
2023-04-23T05:10:24.550Z,21.35
2023-04-23T05:11:26.676Z,23.90
2023-04-23T05:12:28.761Z,20.95
2023-04-23T05:13:30.872Z,21.35
2023-04-23T05:14:32.971Z,20.38
2023-04-23T05:15:35.088Z,20.50
2023-04-23T05:16:37.267Z,21.67
2023-04-23T05:17:39.510Z,25.50
2023-04-23T05:18:42.358Z,19.20
2023-04-23T05:19:44.439Z,16.42
2023-04-23T05:20:46.650Z,17.13
2023-04-23T05:21:48.752Z,17.33
2023-04-23T05:22:50.890Z,21.90
2023-04-23T05:23:53.038Z,18.40
2023-04-23T05:24:56.521Z,20.95
2023-04-23T05:25:58.880Z,14.32
2023-04-23T05:27:01.389Z,16.63
2023-04-23T05:28:03.640Z,21.17
2023-04-23T05:29:05.882Z,19.10
2023-04-23T05:30:09.706Z,14.63
2023-04-23T05:31:11.879Z,13.95
2023-04-23T05:32:14.262Z,13.85
2023-04-23T05:33:16.464Z,14.15
2023-04-23T05:34:18.603Z,18.40
2023-04-23T05:35:20.841Z,14.57
2023-04-23T05:36:22.998Z,17.85
2023-04-23T05:37:25.334Z,17.73
2023-04-23T05:38:27.548Z,14.20
2023-04-23T05:39:29.623Z,14.77
2023-04-23T05:40:33.158Z,16.17
2023-04-23T05:41:35.355Z,16.30
2023-04-23T05:42:37.499Z,14.50
2023-04-23T05:43:39.633Z,14.00
2023-04-23T05:44:42.112Z,12.98
2023-04-23T05:45:44.432Z,11.27
2023-04-23T05:46:46.629Z,12.60
2023-04-23T05:47:48.742Z,11.05
2023-04-23T05:48:51.175Z,10.90
2023-04-23T05:49:53.284Z,15.35
2023-04-23T05:50:55.538Z,13.88
2023-04-23T05:51:59.367Z,13.85
2023-04-23T05:53:01.520Z,14.45
2023-04-23T05:54:03.767Z,11.45
2023-04-23T05:55:07.923Z,11.95
2023-04-23T05:56:11.951Z,14.80
2023-04-23T05:57:14.198Z,21.67
2023-04-23T05:58:17.242Z,13.43
2023-04-23T05:59:19.324Z,10.68
2023-04-23T06:00:21.773Z,10.25
2023-04-23T06:01:23.860Z,12.35
2023-04-23T06:02:26.103Z,13.07
2023-04-23T06:03:28.539Z,10.77
2023-04-23T06:04:31.111Z,14.43
2023-04-23T06:05:33.541Z,15.23
2023-04-23T06:06:35.777Z,11.93
2023-04-23T06:07:37.981Z,11.57
2023-04-23T06:08:40.236Z,11.50
2023-04-23T06:09:42.399Z,11.80
2023-04-23T06:10:44.557Z,10.10
2023-04-23T06:11:50.558Z,9.10
2023-04-23T06:12:54.622Z,12.95
2023-04-23T06:13:56.707Z,10.65
2023-04-23T06:14:58.879Z,11.77
2023-04-23T06:16:01.115Z,13.73
2023-04-23T06:17:03.286Z,8.75
2023-04-23T06:18:05.857Z,11.50
2023-04-23T06:19:08.153Z,8.75
2023-04-23T06:20:11.896Z,8.48
2023-04-23T06:21:14.353Z,10.70
2023-04-23T06:22:16.482Z,14.32
2023-04-23T06:23:18.555Z,14.00
2023-04-23T06:24:20.723Z,13.77
2023-04-23T06:25:22.911Z,12.07
2023-04-23T06:26:25.072Z,8.70
2023-04-23T06:27:28.638Z,11.75
2023-04-23T06:28:30.729Z,11.52
2023-04-23T06:29:32.824Z,10.68
2023-04-23T06:30:35.088Z,9.50
2023-04-23T06:31:37.305Z,14.32
2023-04-23T06:32:39.482Z,15.88
2023-04-23T06:33:41.793Z,15.88
2023-04-23T06:34:57.140Z,12.65
2023-04-23T06:36:02.098Z,10.90
2023-04-23T06:37:04.257Z,8.95
2023-04-23T06:38:06.380Z,13.35
2023-04-23T06:39:08.556Z,15.35
2023-04-23T06:40:11.278Z,13.70
2023-04-23T06:41:13.498Z,8.70
2023-04-23T06:42:15.699Z,16.52
2023-04-23T06:43:19.317Z,9.95
2023-04-23T06:44:21.517Z,13.23
2023-04-23T06:45:23.926Z,11.02
2023-04-23T06:46:26.093Z,8.95
2023-04-23T06:47:28.244Z,11.02
2023-04-23T06:48:32.323Z,11.00
2023-04-23T06:49:34.413Z,10.35
2023-04-23T06:50:36.555Z,14.10
2023-04-23T06:51:38.743Z,13.32
2023-04-23T06:52:40.917Z,12.30
2023-04-23T06:53:43.008Z,7.72
2023-04-23T06:54:45.209Z,11.63
2023-04-23T06:55:49.795Z,12.13
2023-04-23T06:56:52.320Z,10.38
2023-04-23T06:57:54.734Z,10.98
2023-04-23T06:58:58.209Z,8.50
2023-04-23T07:00:00.424Z,11.40
2023-04-23T07:01:04.479Z,11.43
2023-04-23T07:02:06.814Z,11.43
2023-04-23T07:03:09.334Z,9.70
2023-04-23T07:04:11.544Z,7.70
2023-04-23T07:05:13.652Z,11.73
2023-04-23T07:06:16.167Z,10.98
2023-04-23T07:07:18.436Z,14.45
2023-04-23T07:08:23.208Z,8.10
2023-04-23T07:09:25.562Z,14.23
2023-04-23T07:10:27.672Z,11.82
2023-04-23T07:11:31.781Z,9.65
2023-04-23T07:12:33.848Z,9.68
2023-04-23T07:13:36.154Z,10.68
2023-04-23T07:14:39.847Z,11.43
2023-04-23T07:15:42.463Z,9.38
2023-04-23T07:16:44.794Z,15.00
2023-04-23T07:17:47.071Z,10.25
2023-04-23T07:18:50.196Z,15.43
2023-04-23T07:19:52.301Z,10.63
2023-04-23T07:20:54.718Z,10.32
2023-04-23T07:21:56.857Z,7.75
2023-04-23T07:22:59.532Z,5.45
2023-04-23T07:24:07.037Z,6.28
2023-04-23T07:25:09.963Z,10.15
2023-04-23T07:26:12.114Z,8.50
2023-04-23T07:27:14.310Z,9.70
2023-04-23T07:28:16.438Z,11.63
2023-04-23T07:29:18.592Z,7.32
2023-04-23T07:30:24.105Z,6.28
2023-04-23T07:31:26.520Z,7.13
2023-04-23T07:32:28.734Z,9.10
2023-04-23T07:33:31.027Z,7.07
2023-04-23T07:34:33.756Z,6.22
2023-04-23T07:35:37.005Z,11.00
2023-04-23T07:36:39.162Z,7.18
2023-04-23T07:37:41.848Z,8.05
2023-04-23T07:38:44.477Z,7.43
2023-04-23T07:39:46.865Z,10.43
2023-04-23T07:40:49.581Z,10.60
2023-04-23T07:41:51.709Z,8.32
2023-04-23T07:42:53.777Z,13.68
2023-04-23T07:43:56.610Z,6.30
2023-04-23T07:44:58.782Z,10.65
2023-04-23T07:46:02.326Z,11.43
2023-04-23T07:47:04.601Z,13.52
2023-04-23T07:48:06.747Z,6.32
2023-04-23T07:49:08.859Z,5.82
2023-04-23T07:50:11.449Z,6.82
2023-04-23T07:51:13.549Z,10.70
2023-04-23T07:52:16.771Z,10.65
2023-04-23T07:53:18.995Z,5.68
2023-04-23T07:54:21.187Z,8.57
2023-04-23T07:55:23.486Z,10.15
2023-04-23T07:56:25.745Z,6.05
2023-04-23T07:57:27.837Z,7.80
2023-04-23T07:58:29.932Z,5.70
2023-04-23T07:59:32.191Z,8.77
2023-04-23T08:00:34.371Z,6.82
2023-04-23T08:01:37.893Z,4.72
2023-04-23T08:02:40.343Z,8.38
2023-04-23T08:03:42.994Z,6.53
2023-04-23T08:04:45.292Z,9.52
2023-04-23T08:05:47.662Z,7.70
2023-04-23T08:06:49.860Z,6.60
2023-04-23T08:07:51.974Z,6.55
2023-04-23T08:08:56.098Z,11.23
2023-04-23T08:10:02.979Z,8.70
2023-04-23T08:11:06.573Z,6.68
2023-04-23T08:12:08.774Z,6.07
2023-04-23T08:13:11.302Z,11.15
2023-04-23T08:14:13.503Z,6.50
2023-04-23T08:15:15.964Z,6.28
2023-04-23T08:16:18.227Z,4.88
2023-04-23T08:17:21.835Z,10.07
2023-04-23T08:18:24.137Z,5.75
2023-04-23T08:19:31.632Z,7.90
2023-04-23T08:20:34.740Z,4.63
2023-04-23T08:21:36.995Z,4.10
2023-04-23T08:22:39.746Z,6.90
2023-04-23T08:23:42.206Z,7.18
2023-04-23T08:24:46.521Z,7.13
2023-04-23T08:25:48.713Z,8.38
2023-04-23T08:26:50.826Z,7.35
2023-04-23T08:27:53.173Z,10.38
2023-04-23T08:28:55.369Z,6.82
2023-04-23T08:29:57.460Z,6.07
2023-04-23T08:31:00.416Z,7.95
2023-04-23T08:32:02.652Z,7.95
2023-04-23T08:33:06.281Z,5.75
2023-04-23T08:34:08.507Z,5.30
2023-04-23T08:36:03.828Z,6.82
2023-04-23T08:43:56.121Z,5.38
2023-04-23T08:45:22.611Z,7.03
2023-04-23T08:46:48.227Z,8.50
2023-04-23T08:48:19.439Z,3.97
2023-04-23T08:49:41.557Z,4.82
2023-04-23T08:51:05.918Z,3.88
2023-04-23T08:54:23.048Z,4.03
2023-04-23T08:55:34.128Z,3.95
2023-04-23T09:01:31.714Z,3.95
2023-04-23T09:03:28.770Z,4.60
2023-04-23T09:04:33.244Z,7.97
2023-04-23T09:05:59.267Z,5.53
2023-04-23T09:07:14.096Z,5.15
2023-04-23T09:08:22.298Z,5.18
2023-04-23T09:09:29.835Z,4.45
2023-04-23T09:10:32.657Z,5.75
2023-04-23T09:11:37.213Z,4.68
2023-04-23T09:12:41.612Z,7.00
2023-04-23T09:13:43.854Z,7.07
2023-04-23T09:14:46.145Z,7.13
2023-04-23T09:15:48.425Z,2.88
2023-04-23T09:16:51.069Z,6.22
2023-04-23T09:17:53.538Z,9.85
2023-04-23T09:18:55.803Z,4.38
2023-04-23T09:19:59.549Z,5.78
2023-04-23T09:21:04.344Z,5.90
2023-04-23T09:22:08.312Z,13.30
2023-04-23T09:23:14.959Z,6.25
2023-04-23T09:24:18.085Z,7.68
2023-04-23T09:25:22.817Z,6.90
2023-04-23T09:26:24.999Z,6.50
2023-04-23T09:27:27.280Z,7.75
2023-04-23T09:28:36.706Z,7.13
2023-04-23T09:29:38.999Z,5.47
2023-04-23T09:30:45.890Z,5.03
2023-04-23T09:31:51.259Z,6.55
2023-04-23T09:32:53.840Z,8.05
2023-04-23T09:33:58.522Z,8.40
2023-04-23T09:35:03.692Z,6.07
2023-04-23T09:36:24.742Z,5.15
2023-04-23T09:40:18.798Z,8.77
2023-04-23T09:43:21.846Z,5.30
2023-04-23T09:44:30.136Z,7.95
2023-04-23T09:47:45.110Z,3.50
2023-04-23T09:48:50.862Z,8.95
2023-04-23T09:50:03.286Z,5.63
2023-04-23T09:51:13.555Z,10.00
2023-04-23T09:52:16.236Z,9.65
2023-04-23T09:53:20.651Z,3.53
2023-04-23T09:54:47.194Z,3.17
2023-04-23T09:55:59.936Z,6.20
2023-04-23T09:57:04.604Z,4.78
2023-04-23T09:58:13.011Z,7.80
2023-04-23T09:59:32.583Z,3.70
2023-04-23T10:00:44.666Z,9.93
2023-04-23T10:01:50.443Z,7.72
2023-04-23T10:02:56.295Z,10.43
2023-04-23T10:04:01.569Z,6.78
2023-04-23T10:05:24.337Z,7.72
2023-04-23T10:06:47.086Z,3.65
2023-04-23T10:08:14.018Z,7.50
2023-04-23T10:09:26.053Z,6.85
2023-04-23T10:10:31.276Z,7.57
2023-04-23T10:11:35.371Z,4.63
2023-04-23T10:12:53.482Z,4.20
2023-04-23T10:14:00.063Z,8.13
2023-04-23T10:15:04.350Z,7.53
2023-04-23T10:16:21.445Z,7.60
2023-04-23T10:17:24.454Z,8.90
2023-04-23T10:18:26.976Z,8.30
2023-04-23T10:19:29.735Z,12.10
2023-04-23T10:20:34.286Z,4.45
2023-04-23T10:21:50.421Z,9.73
2023-04-23T10:23:00.379Z,6.68
2023-04-23T10:24:34.181Z,6.90
2023-04-23T10:25:39.307Z,11.63
2023-04-23T10:26:47.777Z,12.93
2023-04-23T10:27:54.258Z,6.13
2023-04-23T10:29:00.180Z,8.82
2023-04-23T10:30:06.417Z,7.35
2023-04-23T10:31:11.044Z,6.28
2023-04-23T10:32:17.148Z,6.50
2023-04-23T10:34:32.820Z,8.68
2023-04-23T10:35:48.737Z,6.93
2023-04-23T10:36:54.218Z,11.85
2023-04-23T10:37:59.533Z,4.50
2023-04-23T10:39:05.403Z,5.70
2023-04-23T10:40:19.103Z,4.68
2023-04-23T10:41:35.642Z,8.77
2023-04-23T10:42:40.674Z,5.47
2023-04-23T10:43:44.183Z,4.47
2023-04-23T10:45:02.530Z,4.78
2023-04-23T10:46:29.472Z,7.25
2023-04-23T10:47:31.909Z,5.07
2023-04-23T10:48:52.101Z,7.22
2023-04-23T10:49:54.394Z,7.32
2023-04-23T10:51:14.589Z,4.93
2023-04-23T10:52:25.937Z,6.68
2023-04-23T10:53:32.781Z,9.05
2023-04-23T10:54:36.466Z,5.57
2023-04-23T10:55:38.938Z,8.25
2023-04-23T10:56:45.922Z,3.35
2023-04-23T10:58:01.248Z,9.35
2023-04-23T10:59:06.808Z,8.10
2023-04-23T11:00:10.997Z,7.13
2023-04-23T11:01:16.289Z,7.95
2023-04-23T11:02:18.815Z,5.25
2023-04-23T11:03:34.344Z,7.50
2023-04-23T11:04:42.400Z,4.65
2023-04-23T11:05:45.389Z,10.45
2023-04-23T11:06:58.187Z,3.47
2023-04-23T11:09:56.886Z,6.07
2023-04-23T11:11:09.461Z,7.43
2023-04-23T11:12:13.655Z,6.70
2023-04-23T11:13:24.236Z,8.63
2023-04-23T11:14:46.146Z,7.18
2023-04-23T11:15:48.315Z,6.75
2023-04-23T11:16:50.653Z,7.22
2023-04-23T11:18:02.235Z,4.90
2023-04-23T11:19:08.741Z,4.88
2023-04-23T11:20:13.832Z,5.43
2023-04-23T11:21:16.292Z,7.57
2023-04-23T11:22:20.680Z,7.60
2023-04-23T11:23:34.143Z,8.90
2023-04-23T11:24:41.639Z,7.32
2023-04-23T11:25:45.395Z,9.10
2023-04-23T11:26:51.608Z,4.75
2023-04-23T11:27:54.835Z,4.75
2023-04-23T11:28:57.957Z,4.65
2023-04-23T11:30:00.365Z,11.23
2023-04-23T11:31:04.815Z,8.38
2023-04-23T11:32:14.237Z,4.05
2023-04-23T11:33:16.622Z,5.07
2023-04-23T11:34:19.032Z,6.15
2023-04-23T11:35:23.404Z,7.72
2023-04-23T11:36:25.976Z,8.23
2023-04-23T11:37:28.277Z,14.05
2023-04-23T11:38:37.167Z,7.78
2023-04-23T11:39:41.259Z,5.30
2023-04-23T11:40:46.905Z,6.72
2023-04-23T11:41:50.308Z,6.20
2023-04-23T11:42:54.966Z,7.97
2023-04-23T11:43:58.610Z,4.50
2023-04-23T11:45:00.745Z,11.25
2023-04-23T11:46:02.980Z,5.38
2023-04-23T11:47:07.892Z,7.80
2023-04-23T11:48:10.322Z,11.10
2023-04-23T11:49:13.371Z,9.52
2023-04-23T11:50:19.666Z,5.50
2023-04-23T11:51:26.134Z,9.68
2023-04-23T11:52:28.303Z,7.63
2023-04-23T11:53:30.620Z,9.10
2023-04-23T11:54:34.453Z,4.43
2023-04-23T11:55:36.774Z,6.15
2023-04-23T11:56:39.212Z,6.45
2023-04-23T11:57:45.994Z,6.88
2023-04-23T11:58:48.174Z,10.80
2023-04-23T11:59:53.845Z,5.75
2023-04-23T12:00:59.338Z,7.50
2023-04-23T12:02:01.500Z,6.57
2023-04-23T12:03:06.552Z,9.00
2023-04-23T12:04:13.865Z,4.32
2023-04-23T12:05:16.387Z,3.17
2023-04-23T12:06:18.766Z,6.90
2023-04-23T12:07:31.424Z,4.28
2023-04-23T12:08:40.403Z,9.02
2023-04-23T12:09:46.414Z,7.85
2023-04-23T12:10:51.946Z,4.50
2023-04-23T12:11:54.617Z,6.57
2023-04-23T12:12:58.957Z,5.22
2023-04-23T12:14:01.109Z,4.57
2023-04-23T12:15:07.529Z,6.60
2023-04-23T12:16:11.056Z,4.40
2023-04-23T12:17:13.623Z,6.03
2023-04-23T12:18:15.949Z,4.88
2023-04-23T12:19:19.278Z,2.95
2023-04-23T12:20:22.453Z,6.95
2023-04-23T12:21:26.250Z,8.00
2023-04-23T12:22:31.571Z,6.50
2023-04-23T12:23:37.047Z,4.60
2023-04-23T12:25:00.207Z,9.15
2023-04-23T12:26:06.886Z,10.73
2023-04-23T12:27:15.721Z,4.57
2023-04-23T12:28:23.939Z,6.28
2023-04-23T12:29:27.189Z,12.98
2023-04-23T12:30:29.956Z,8.52
2023-04-23T12:31:32.347Z,6.25
2023-04-23T12:32:35.625Z,7.93
2023-04-23T12:33:38.218Z,4.70
2023-04-23T12:34:53.197Z,4.05
2023-04-23T12:35:55.597Z,7.18
2023-04-23T12:36:57.920Z,5.93
2023-04-23T12:38:00.031Z,5.70
2023-04-23T12:39:22.573Z,6.47
2023-04-23T12:40:26.076Z,7.32
2023-04-23T12:41:28.248Z,7.03
2023-04-23T12:42:30.516Z,4.30
2023-04-23T12:43:32.739Z,7.03
2023-04-23T12:44:37.138Z,5.68
2023-04-23T12:45:39.598Z,8.63
2023-04-23T12:46:41.830Z,7.35
2023-04-23T12:47:44.132Z,5.47
2023-04-23T12:48:46.272Z,3.65
2023-04-23T12:49:53.315Z,4.03
2023-04-23T12:50:55.890Z,3.70
2023-04-23T12:52:01.255Z,8.63
2023-04-23T12:53:03.600Z,7.50
2023-04-23T12:54:06.434Z,3.92
2023-04-23T12:55:08.999Z,6.78
2023-04-23T12:56:12.529Z,4.82
2023-04-23T12:57:14.827Z,4.05
2023-04-23T12:58:17.057Z,10.50
2023-04-23T12:59:19.279Z,4.35
2023-04-23T13:00:22.083Z,3.55
2023-04-23T13:01:24.451Z,6.32
2023-04-23T13:02:26.954Z,4.60
2023-04-23T13:03:29.392Z,5.30
2023-04-23T13:04:33.836Z,3.97
2023-04-23T13:05:35.958Z,6.25
2023-04-23T13:06:38.125Z,3.83
2023-04-23T13:07:40.330Z,3.53
2023-04-23T13:08:42.434Z,4.38
2023-04-23T13:09:44.799Z,4.47
2023-04-23T13:10:47.220Z,12.13
2023-04-23T13:11:51.136Z,3.35
2023-04-23T13:12:53.281Z,3.83
2023-04-23T13:13:55.540Z,3.20
2023-04-23T13:14:58.233Z,4.00
2023-04-23T13:16:00.515Z,11.65
2023-04-23T13:17:02.658Z,6.70
2023-04-23T13:18:05.329Z,6.85
2023-04-23T13:19:07.507Z,4.97
2023-04-23T13:20:10.291Z,4.05
2023-04-23T13:21:12.402Z,8.07
2023-04-23T13:22:14.614Z,4.65
2023-04-23T13:23:16.723Z,4.25
2023-04-23T13:24:18.845Z,6.95
2023-04-23T13:25:20.929Z,14.88
2023-04-23T13:26:23.490Z,7.53
2023-04-23T13:27:28.767Z,5.32
2023-04-23T13:28:30.933Z,6.82
2023-04-23T13:29:33.632Z,3.53
2023-04-23T13:30:35.887Z,7.88
2023-04-23T13:31:38.263Z,13.10
2023-04-23T13:32:40.661Z,7.20
2023-04-23T13:33:42.992Z,9.48
2023-04-23T13:34:45.569Z,3.20
2023-04-23T13:35:47.963Z,5.53
2023-04-23T13:36:50.255Z,5.47
2023-04-23T13:37:52.405Z,7.63
2023-04-23T13:38:54.700Z,10.20
2023-04-23T13:39:56.884Z,8.05
2023-04-23T13:40:59.145Z,4.50
2023-04-23T13:42:09.526Z,3.35
2023-04-23T13:43:13.640Z,8.02
2023-04-23T13:44:15.865Z,6.82
2023-04-23T13:45:18.075Z,6.32
2023-04-23T13:46:20.356Z,5.97
2023-04-23T13:47:22.669Z,7.53
2023-04-23T13:48:28.775Z,5.68
2023-04-23T13:49:30.931Z,6.00
2023-04-23T13:50:36.159Z,6.65
2023-04-23T13:51:38.376Z,5.95
2023-04-23T13:52:40.728Z,6.50
2023-04-23T13:53:43.418Z,8.20
2023-04-23T13:54:47.845Z,6.32
2023-04-23T13:55:50.288Z,5.88
2023-04-23T13:56:52.496Z,5.55
2023-04-23T13:57:57.961Z,6.20
2023-04-23T13:59:18.797Z,4.82
2023-04-23T14:00:22.028Z,4.47
2023-04-23T14:01:24.152Z,4.85
2023-04-23T14:02:26.546Z,7.70
2023-04-23T14:03:28.741Z,6.45
2023-04-23T14:04:30.961Z,7.18
2023-04-23T14:05:33.311Z,6.65
2023-04-23T14:06:35.739Z,4.43
2023-04-23T14:07:37.970Z,5.53
2023-04-23T14:08:41.099Z,7.82
2023-04-23T14:09:43.692Z,6.35
2023-04-23T14:10:47.036Z,5.25
2023-04-23T14:11:49.399Z,5.60
2023-04-23T14:12:52.040Z,11.25
2023-04-23T14:13:54.810Z,7.82
2023-04-23T14:14:58.376Z,3.28
2023-04-23T14:16:03.365Z,4.60
2023-04-23T14:17:05.927Z,8.63
2023-04-23T14:18:08.215Z,5.47
2023-04-23T14:19:10.410Z,9.00
2023-04-23T14:20:15.663Z,4.90
2023-04-23T14:21:18.232Z,8.80
2023-04-23T14:22:20.467Z,9.98
2023-04-23T14:23:44.681Z,5.68
2023-04-23T14:24:49.922Z,10.68
2023-04-23T14:25:53.969Z,4.40
2023-04-23T14:26:56.976Z,6.18
2023-04-23T14:28:03.625Z,4.82
2023-04-23T14:29:11.350Z,6.68
2023-04-23T14:30:20.596Z,3.63
2023-04-23T14:31:22.945Z,10.60
2023-04-23T14:32:25.086Z,6.15
2023-04-23T14:33:27.626Z,4.50
2023-04-23T14:34:29.841Z,5.35
2023-04-23T14:35:42.609Z,7.65
2023-04-23T14:36:48.982Z,6.78
2023-04-23T14:37:51.501Z,4.65
2023-04-23T14:38:53.669Z,6.93
2023-04-23T14:39:55.765Z,13.05
2023-04-23T14:40:57.914Z,3.17
2023-04-23T14:42:01.131Z,7.15
2023-04-23T14:43:14.648Z,12.38
2023-04-23T14:44:17.826Z,4.97
2023-04-23T14:45:21.550Z,7.05
2023-04-23T14:46:23.665Z,5.85
2023-04-23T14:47:26.936Z,5.53
2023-04-23T14:48:29.316Z,4.28
2023-04-23T14:49:31.436Z,7.95
2023-04-23T14:50:33.926Z,6.43
2023-04-23T14:51:37.491Z,11.27
2023-04-23T14:52:39.837Z,6.45
2023-04-23T14:53:41.964Z,10.07
2023-04-23T14:54:44.806Z,5.93
2023-04-23T14:55:46.934Z,5.85
2023-04-23T14:56:49.090Z,5.28
2023-04-23T14:57:51.382Z,6.68
2023-04-23T14:58:53.738Z,5.70
2023-04-23T14:59:56.507Z,4.13
2023-04-23T15:01:00.207Z,5.60
2023-04-23T15:02:02.867Z,6.07
2023-04-23T15:03:11.096Z,5.55
2023-04-23T15:04:13.710Z,3.55
2023-04-23T15:05:16.757Z,8.98
2023-04-23T15:06:18.944Z,8.20
2023-04-23T15:07:21.198Z,6.25
2023-04-23T15:08:23.600Z,6.15
2023-04-23T15:09:25.944Z,4.88
2023-04-23T15:10:28.109Z,5.00
2023-04-23T15:11:30.344Z,10.18
2023-04-23T15:12:42.979Z,8.63
2023-04-23T15:13:50.513Z,6.72
2023-04-23T15:14:55.641Z,4.57
2023-04-23T15:16:02.980Z,7.63
2023-04-23T15:17:05.198Z,11.73
2023-04-23T15:18:07.743Z,8.20
2023-04-23T15:19:13.252Z,3.42
2023-04-23T15:20:16.538Z,11.32
2023-04-23T15:21:18.656Z,4.55
2023-04-23T15:22:20.754Z,6.88
2023-04-23T15:23:24.228Z,5.57
2023-04-23T15:24:26.429Z,5.03
2023-04-23T15:25:30.041Z,5.80
2023-04-23T15:26:34.407Z,6.47
2023-04-23T15:27:36.614Z,6.32
2023-04-23T15:28:38.831Z,6.15
2023-04-23T15:29:44.334Z,3.70
2023-04-23T15:30:47.661Z,5.97
2023-04-23T15:31:52.977Z,7.20
2023-04-23T15:32:55.602Z,5.47
2023-04-23T15:33:57.781Z,10.82
2023-04-23T15:34:59.920Z,5.35
2023-04-23T15:36:02.138Z,5.90
2023-04-23T15:37:04.249Z,9.90
2023-04-23T15:38:06.433Z,12.02
2023-04-23T15:39:09.333Z,10.52
2023-04-23T15:40:12.250Z,5.10
2023-04-23T15:41:14.402Z,9.07
2023-04-23T15:42:18.237Z,11.30
2023-04-23T15:43:20.360Z,5.28
2023-04-23T15:44:22.581Z,8.98
2023-04-23T15:45:24.709Z,6.70
2023-04-23T15:46:26.821Z,15.35
2023-04-23T15:47:30.371Z,7.50
2023-04-23T15:48:32.566Z,5.80
2023-04-23T15:49:34.709Z,6.75
2023-04-23T15:50:37.111Z,6.57
2023-04-23T15:51:39.256Z,6.57
2023-04-23T15:52:41.898Z,9.88
2023-04-23T15:53:44.085Z,6.75
2023-04-23T15:54:46.442Z,9.38
2023-04-23T15:55:49.007Z,7.68
2023-04-23T15:56:51.115Z,9.23
2023-04-23T15:57:53.263Z,3.80
2023-04-23T15:58:55.507Z,7.35
2023-04-23T15:59:57.620Z,6.97
2023-04-23T16:00:59.807Z,7.82
2023-04-23T16:02:02.620Z,7.28
2023-04-23T16:03:06.675Z,8.27
2023-04-23T16:04:11.744Z,6.78
2023-04-23T16:05:14.616Z,7.68
2023-04-23T16:06:16.962Z,9.55
2023-04-23T16:07:19.122Z,5.22
2023-04-23T16:08:21.966Z,7.43
2023-04-23T16:09:24.155Z,7.25
2023-04-23T16:10:27.736Z,10.27
2023-04-23T16:11:30.022Z,6.72
2023-04-23T16:12:32.988Z,12.50
2023-04-23T16:13:35.850Z,2.95
2023-04-23T16:14:38.101Z,6.43
2023-04-23T16:15:40.217Z,9.45
2023-04-23T16:16:42.708Z,5.05
2023-04-23T16:17:45.322Z,7.90
2023-04-23T16:18:49.551Z,10.02
2023-04-23T16:19:51.686Z,4.95
2023-04-23T16:20:53.788Z,6.57
2023-04-23T16:21:56.014Z,12.02
2023-04-23T16:22:58.292Z,9.95
2023-04-23T16:24:00.676Z,4.47
2023-04-23T16:25:02.843Z,5.43
2023-04-23T16:26:08.749Z,7.32
2023-04-23T16:27:11.292Z,5.70
2023-04-23T16:28:13.913Z,8.80
2023-04-23T16:29:22.103Z,6.50
2023-04-23T16:30:25.179Z,10.15
2023-04-23T16:31:27.339Z,5.32
2023-04-23T16:32:29.641Z,8.32
2023-04-23T16:33:31.791Z,10.60
2023-04-23T16:34:35.527Z,6.85
2023-04-23T16:35:38.080Z,3.60
2023-04-23T16:36:40.271Z,3.92